Overview Statistics Trail Chart Weather Telemetry Raw packets
 

This is the latest recevied weather packets stored in our database for station/object 4S6DRJ-13. If no packets are shown the sender has not sent any weather packets the latest 10 day(s).

<< 107 108 109 110 111 112 113 >>
Time Temp. Humidity Pressure Rain* Wind** Luminosity Snow
1788295537 27.78° C 83% 1009.3 hPa 0 mm 0.89 m/s, 229° 0 W/m² -
1788295476 27.78° C 83% 1009 hPa 0 mm 0 m/s 0 W/m² -
1788295416 27.78° C 83% 1009.2 hPa 0 mm 0.45 m/s, 185° 0 W/m² -
1788295354 27.78° C 83% 1009.3 hPa 0 mm 0.89 m/s, 215° 0 W/m² -
1788295293 27.78° C 83% 1009.3 hPa 0 mm 0.89 m/s, 223° 0 W/m² -
1788295232 27.78° C 83% 1009.1 hPa 0 mm 0.45 m/s, 221° 0 W/m² -
1788295171 27.78° C 83% 1009.3 hPa 0 mm 0.89 m/s, 192° 0 W/m² -
1788295110 27.78° C 83% 1009.3 hPa 0 mm 0 m/s 0 W/m² -
1788295049 27.78° C 83% 1009.4 hPa 0 mm 0 m/s 0 W/m² -
1788294988 27.78° C 83% 1009.3 hPa 0 mm 0.45 m/s, 285° 0 W/m² -
1788294928 27.78° C 83% 1009.4 hPa 0 mm 0 m/s 0 W/m² -
1788294866 27.78° C 83% 1009.3 hPa 0 mm 0.89 m/s, 235° 0 W/m² -
1788294804 27.78° C 83% 1009.5 hPa 0 mm 0.45 m/s, 240° 0 W/m² -
1788294743 27.78° C 83% 1009.4 hPa 0 mm 0.45 m/s, 200° 0 W/m² -
1788294682 27.78° C 83% 1009.4 hPa 0 mm 0.89 m/s, 247° 0 W/m² -
1788294631 27.78° C 83% 1009.4 hPa 0 mm 1.34 m/s, 206° 0 W/m² -
1788294561 27.78° C 83% 1009.5 hPa 0 mm 1.79 m/s, 210° 0 W/m² -
1788294499 27.78° C 83% 1009.2 hPa 0 mm 0.45 m/s, 225° 0 W/m² -
1788294438 27.78° C 83% 1009.3 hPa 0 mm 0.89 m/s, 139° 0 W/m² -
1788294377 27.78° C 83% 1009.3 hPa 0 mm 1.34 m/s, 238° 0 W/m² -
1788294316 27.78° C 83% 1009.4 hPa 0 mm 0.45 m/s, 206° 0 W/m² -
1788294255 27.78° C 83% 1009.3 hPa 0 mm 0.45 m/s, 251° 0 W/m² -
1788294194 27.78° C 83% 1009.4 hPa 0 mm 0.45 m/s, 236° 0 W/m² -
1788294133 27.78° C 83% 1009.5 hPa 0 mm 0.89 m/s, 228° 0 W/m² -
1788294073 27.78° C 83% 1009.5 hPa 0 mm 0 m/s 0 W/m² -

* Rain latest hour (hover to see other rain measurements)
** Current wind speed in m/s (hover to see current wind gust speed)